Time;durP1;ratioP1;P1;durP2;ratioP2;P2;SDS_P1;SDS_P2;PMS_P1;PMS_P2;Temp;Humidity;BMP_temperature;BMP_pressure;BME280_temperature;BME280_humidity;BME280_pressure;Samples;Min_cycle;Max_cycle;Signal;HPM_P1;HPM_P2
2022/04/20 00:00:34;;;;;;;8.38;3.30;;;;;;;10.11;48.22;101475.00;5037094;28;20365;-77
2022/04/20 00:03:00;;;;;;;4.65;3.00;;;;;;;10.09;47.97;101475.03;5030197;28;20033;-77
2022/04/20 00:05:26;;;;;;;4.28;3.15;;;;;;;10.08;48.90;101480.31;5028818;28;20037;-78
2022/04/20 00:07:51;;;;;;;5.55;3.42;;;;;;;10.05;49.26;101480.34;5028590;28;20038;-78
2022/04/20 00:10:17;;;;;;;7.70;3.30;;;;;;;10.00;48.15;101474.25;5031903;28;20088;-78
2022/04/20 00:12:42;;;;;;;6.80;3.35;;;;;;;9.98;48.45;101468.06;5045701;28;20341;-77
2022/04/20 00:15:08;;;;;;;8.40;3.50;;;;;;;9.95;48.54;101471.63;5035666;28;20113;-77
2022/04/20 00:17:34;;;;;;;5.93;3.50;;;;;;;9.92;48.85;101466.38;5028568;28;20108;-77
2022/04/20 00:20:00;;;;;;;8.25;3.42;;;;;;;9.89;48.83;101477.88;5029823;28;20051;-77
2022/04/20 00:22:25;;;;;;;8.25;3.67;;;;;;;9.85;48.79;101467.31;5032623;28;20084;-77
2022/04/20 00:24:51;;;;;;;7.93;3.67;;;;;;;9.83;49.13;101475.25;5028320;28;20037;-77
2022/04/20 00:27:16;;;;;;;9.98;3.40;;;;;;;9.81;48.69;101473.50;5027905;28;20460;-77
2022/04/20 00:29:42;;;;;;;11.57;3.70;;;;;;;9.78;48.81;101468.25;5034334;28;20029;-77
2022/04/20 00:32:08;;;;;;;7.97;3.63;;;;;;;9.75;48.73;101476.22;5031437;28;20524;-77
2022/04/20 00:34:33;;;;;;;5.40;3.42;;;;;;;9.69;49.11;101475.38;5044011;28;20530;-77
2022/04/20 00:36:59;;;;;;;5.65;3.40;;;;;;;9.64;49.59;101471.00;5030259;28;20163;-77
2022/04/20 00:39:25;;;;;;;5.78;3.40;;;;;;;9.62;49.33;101476.31;5031382;28;20414;-77
2022/04/20 00:41:51;;;;;;;7.40;3.50;;;;;;;9.60;49.91;101474.56;5031292;28;20442;-77
2022/04/20 00:44:17;;;;;;;9.45;3.42;;;;;;;9.55;50.01;101471.97;5026868;28;20143;-77
2022/04/20 00:46:46;;;;;;;4.82;3.55;;;;;;;9.51;49.60;101474.63;5048139;28;20112;-77
2022/04/20 00:49:13;;;;;;;11.50;4.80;;;;;;;9.48;49.95;101479.06;5031542;28;20037;-77
2022/04/20 00:51:52;;;;;;;8.88;3.20;;;;;;;9.47;49.50;101484.38;5021032;28;20043;-77
2022/04/20 00:54:19;;;;;;;5.85;3.83;;;;;;;9.42;50.01;101483.50;5013300;28;20493;-77
2022/04/20 00:56:45;;;;;;;7.70;3.60;;;;;;;9.38;50.46;101485.31;5033180;28;20168;-77
2022/04/20 00:59:13;;;;;;;5.28;3.85;;;;;;;9.33;49.78;101484.44;5032830;28;20064;-77
2022/04/20 01:01:38;;;;;;;5.60;3.63;;;;;;;9.30;50.06;101487.13;5016808;28;20099;-77
2022/04/20 01:04:04;;;;;;;5.28;3.20;;;;;;;9.28;50.27;101482.75;5034018;28;20037;-77
2022/04/20 01:06:49;;;;;;;8.55;3.35;;;;;;;9.23;50.00;101488.03;5040020;28;20045;-77
2022/04/20 01:09:40;;;;;;;8.60;3.53;;;;;;;9.19;50.32;101487.16;5045375;28;20045;-77
2022/04/20 01:12:25;;;;;;;7.82;3.67;;;;;;;9.15;49.70;101488.09;5035899;28;20149;-77
2022/04/20 01:15:14;;;;;;;8.73;3.80;;;;;;;9.11;50.89;101488.13;5031959;28;20079;-77
2022/04/20 01:18:17;;;;;;;6.25;3.47;;;;;;;9.08;50.57;101483.72;5036314;28;20041;-77
2022/04/20 01:21:03;;;;;;;8.05;3.80;;;;;;;9.04;50.00;101487.25;5033912;28;20052;-77
2022/04/20 01:23:47;;;;;;;5.90;3.58;;;;;;;9.01;49.63;101485.50;5031939;28;20193;-77
2022/04/20 01:26:28;;;;;;;7.35;3.70;;;;;;;8.97;51.11;101486.41;5033138;28;20041;-77
2022/04/20 01:29:13;;;;;;;5.68;3.30;;;;;;;8.92;50.53;101482.03;5037152;28;20049;-77
2022/04/20 01:31:39;;;;;;;6.63;3.53;;;;;;;8.86;50.97;101485.59;5052940;28;20044;-77
2022/04/20 01:34:24;;;;;;;5.68;3.97;;;;;;;8.81;50.69;101487.38;5040527;28;20037;-77
2022/04/20 01:36:50;;;;;;;5.03;3.42;;;;;;;8.76;50.54;101487.38;5035697;28;20083;-77
2022/04/20 01:39:16;;;;;;;8.35;4.00;;;;;;;8.73;50.73;101490.06;5032825;28;20044;-77
2022/04/20 01:41:43;;;;;;;5.25;3.40;;;;;;;8.71;50.98;101493.59;5045485;28;20203;-77
2022/04/20 01:44:09;;;;;;;5.80;3.85;;;;;;;8.68;51.47;101493.56;5032824;28;20106;-77
2022/04/20 01:46:46;;;;;;;7.70;3.50;;;;;;;8.66;51.14;101504.16;5039646;28;20029;-77
2022/04/20 01:49:31;;;;;;;5.72;3.53;;;;;;;8.61;51.39;101498.03;5035283;28;20041;-77
2022/04/20 01:52:08;;;;;;;5.53;3.58;;;;;;;8.57;51.07;101504.19;5031394;28;20132;-77
2022/04/20 01:54:52;;;;;;;7.22;3.45;;;;;;;8.53;51.61;101492.75;5032514;28;20060;-77
2022/04/20 01:57:38;;;;;;;6.07;3.25;;;;;;;8.52;51.43;101500.69;5017161;28;20041;-77
2022/04/20 02:00:13;;;;;;;6.35;3.35;;;;;;;8.45;51.36;101489.25;5033906;28;20053;-77
2022/04/20 02:03:11;;;;;;;6.90;3.50;;;;;;;8.41;51.77;101495.44;5030924;28;20052;-77
2022/04/20 02:05:46;;;;;;;6.20;4.07;;;;;;;8.35;51.71;101493.63;5030218;28;20037;-77
2022/04/20 02:08:29;;;;;;;6.95;3.90;;;;;;;8.30;51.34;101498.03;5031697;28;20099;-77
2022/04/20 02:11:11;;;;;;;6.68;3.60;;;;;;;8.27;51.60;101497.19;5018759;28;20041;-76
2022/04/20 02:13:37;;;;;;;5.35;3.63;;;;;;;8.21;52.12;101495.44;5030538;28;20404;-77
2022/04/20 02:16:05;;;;;;;6.38;4.00;;;;;;;8.17;51.88;101498.97;5028777;28;20065;-77
2022/04/20 02:18:50;;;;;;;8.05;3.90;;;;;;;8.11;52.00;101486.66;5030891;28;20069;-77
2022/04/20 02:21:42;;;;;;;10.30;3.85;;;;;;;8.09;51.24;101484.91;5032733;28;20420;-77
2022/04/20 02:24:07;;;;;;;5.25;3.67;;;;;;;8.05;53.15;101491.06;5030449;28;20358;-77
2022/04/20 02:26:33;;;;;;;8.52;3.72;;;;;;;8.03;52.35;101488.41;5030511;28;20166;-77
2022/04/20 02:28:58;;;;;;;6.90;3.53;;;;;;;7.98;52.77;101490.19;5034641;28;20045;-77
2022/04/20 02:31:24;;;;;;;6.38;3.70;;;;;;;7.96;52.53;101494.56;5016561;28;20033;-77
2022/04/20 02:33:49;;;;;;;8.07;3.92;;;;;;;7.90;52.29;101487.53;5016151;28;20103;-77
2022/04/20 02:36:15;;;;;;;5.85;3.42;;;;;;;7.86;52.61;101488.44;5013864;28;20045;-77
2022/04/20 02:38:41;;;;;;;8.23;3.63;;;;;;;7.82;52.53;101488.44;5032760;28;20029;-77
2022/04/20 02:41:07;;;;;;;7.35;3.78;;;;;;;7.78;53.29;101491.94;5030416;28;20359;-77
2022/04/20 02:43:33;;;;;;;5.47;3.47;;;;;;;7.73;52.66;101489.31;5013420;28;20031;-77
2022/04/20 02:45:58;;;;;;;9.18;3.83;;;;;;;7.72;52.70;101485.81;5036773;28;20493;-77
2022/04/20 02:48:24;;;;;;;5.35;4.00;;;;;;;7.71;53.25;101499.84;5049785;28;20489;-77
2022/04/20 02:50:50;;;;;;;6.32;3.60;;;;;;;7.68;52.62;101491.06;5023742;28;20038;-77
2022/04/20 02:53:16;;;;;;;6.68;3.58;;;;;;;7.64;53.03;101497.19;5029725;28;20124;-77
2022/04/20 02:55:44;;;;;;;6.60;3.88;;;;;;;7.64;53.37;101503.38;5013483;28;20293;-77
2022/04/20 02:58:11;;;;;;;5.70;3.30;;;;;;;7.62;52.84;101501.63;5030890;28;20371;-77
2022/04/20 03:00:39;;;;;;;5.63;3.60;;;;;;;7.59;53.28;101507.78;5029859;28;20431;-77
2022/04/20 03:03:19;;;;;;;13.80;4.95;;;;;;;7.56;52.66;101505.09;5015145;28;20045;-77
2022/04/20 03:05:45;;;;;;;5.30;3.53;;;;;;;7.52;52.69;101496.34;5029617;28;20374;-77
2022/04/20 03:08:11;;;;;;;7.45;3.35;;;;;;;7.51;52.51;101502.47;5028083;28;20103;-77
2022/04/20 03:10:37;;;;;;;6.25;3.72;;;;;;;7.50;53.43;101513.03;5013249;28;20041;-77
2022/04/20 03:13:03;;;;;;;6.07;3.45;;;;;;;7.48;52.72;101514.78;5029591;28;20049;-77
2022/04/20 03:15:28;;;;;;;9.15;3.75;;;;;;;7.44;53.36;101513.91;5029510;28;20033;-77
2022/04/20 03:17:57;;;;;;;6.47;3.78;;;;;;;7.39;53.40;101514.75;5028612;28;20026;-77
2022/04/20 03:20:23;;;;;;;7.68;3.92;;;;;;;7.37;53.24;101511.22;5029536;28;20108;-77
2022/04/20 03:22:49;;;;;;;6.22;3.70;;;;;;;7.36;53.16;101512.09;5029186;28;20040;-77
2022/04/20 03:25:15;;;;;;;11.43;3.50;;;;;;;7.37;53.32;101520.03;5029503;28;20029;-77
2022/04/20 03:28:18;;;;;;;5.47;3.72;;;;;;;7.33;53.00;101523.53;5035905;28;20127;-77
2022/04/20 03:30:45;;;;;;;7.80;3.38;;;;;;;7.30;53.87;101520.88;4999688;28;20025;-77
2022/04/20 03:33:11;;;;;;;9.10;4.65;;;;;;;7.28;53.66;101520.00;5032691;28;20132;-77
2022/04/20 03:35:38;;;;;;;4.78;3.25;;;;;;;7.24;54.30;101524.34;5049018;28;20040;-77
2022/04/20 03:38:08;;;;;;;8.07;3.40;;;;;;;7.25;52.61;101523.50;5031388;28;20414;-77
2022/04/20 03:40:34;;;;;;;8.02;3.90;;;;;;;7.22;53.67;101531.41;5013295;28;20091;-77
2022/04/20 03:43:00;;;;;;;9.00;4.03;;;;;;;7.19;53.11;101527.88;5029615;28;20052;-77
2022/04/20 03:45:25;;;;;;;7.03;3.80;;;;;;;7.17;54.22;101534.88;5013079;28;20056;-77
2022/04/20 03:47:51;;;;;;;5.18;3.78;;;;;;;7.16;53.80;101534.00;4996826;28;20045;-77
2022/04/20 03:50:17;;;;;;;11.15;4.30;;;;;;;7.15;54.20;101537.53;5029541;28;20045;-77
2022/04/20 03:52:42;;;;;;;21.00;3.80;;;;;;;7.13;53.65;101526.09;5029333;28;20037;-77
2022/04/20 03:55:11;;;;;;;7.70;3.88;;;;;;;7.08;53.61;101523.44;5013243;28;20544;-77
2022/04/20 03:57:38;;;;;;;9.88;3.95;;;;;;;7.07;53.77;101523.44;5029047;28;20128;-77
2022/04/20 04:00:05;;;;;;;7.53;3.85;;;;;;;7.06;53.77;101522.56;5029393;28;20091;-77
2022/04/20 04:02:31;;;;;;;9.02;3.85;;;;;;;7.05;53.69;101533.09;5029569;28;20155;-77
2022/04/20 04:05:09;;;;;;;5.03;3.50;;;;;;;7.02;53.48;101539.25;4985473;28;20033;-77
2022/04/20 04:07:57;;;;;;;6.97;3.67;;;;;;;6.99;54.16;101533.94;5028290;28;20474;-77
2022/04/20 04:10:30;;;;;;;5.75;3.55;;;;;;;6.98;54.30;101536.59;5000574;28;20057;-77
2022/04/20 04:12:56;;;;;;;8.38;3.65;;;;;;;6.95;54.26;101539.19;5028518;28;20115;-77
2022/04/20 04:15:23;;;;;;;8.55;3.83;;;;;;;6.91;54.85;101537.44;5028562;28;20021;-76
2022/04/20 04:17:54;;;;;;;5.97;3.88;;;;;;;6.90;55.00;101544.47;5031320;28;20120;-77
2022/04/20 04:20:22;;;;;;;;;;;;;;;6.97;52.95;101546.22;5029049;28;20037;-77
2022/04/20 04:22:52;;;;;;;6.40;3.85;;;;;;;6.89;53.80;101534.78;5028567;28;19917;-77
2022/04/20 04:25:38;;;;;;;6.10;3.78;;;;;;;6.90;54.69;101547.09;5039342;28;20148;-77
2022/04/20 04:28:05;;;;;;;6.68;4.68;;;;;;;6.85;54.74;101547.06;5031636;28;20393;-77
2022/04/20 04:30:32;;;;;;;7.93;3.45;;;;;;;6.83;54.43;101538.28;5014334;28;20029;-77
2022/04/20 04:33:01;;;;;;;4.97;3.70;;;;;;;6.80;54.63;101542.63;5012885;28;20499;-77
2022/04/20 04:35:28;;;;;;;7.10;3.75;;;;;;;6.79;54.76;101544.38;5044170;28;20232;-77
2022/04/20 04:37:54;;;;;;;6.38;3.80;;;;;;;6.76;54.98;101544.38;5011553;28;20045;-76
2022/04/20 04:40:23;;;;;;;5.78;3.75;;;;;;;6.76;53.98;101552.28;5028353;28;20033;-77
2022/04/20 04:42:51;;;;;;;6.32;3.90;;;;;;;6.75;54.65;101552.25;5014530;28;20094;-77
2022/04/20 04:50:54;;;;;;;10.35;3.83;;;;;;;6.74;55.06;101563.66;5030956;28;20444;-77
2022/04/20 04:53:19;;;;;;;6.03;3.78;;;;;;;6.72;55.15;101565.41;5028295;28;20029;-77
2022/04/20 04:55:45;;;;;;;7.68;3.70;;;;;;;6.70;55.67;101569.78;5028237;28;20484;-77
2022/04/20 04:58:11;;;;;;;8.02;3.90;;;;;;;6.69;54.69;101568.91;5011704;28;20037;-76
2022/04/20 05:00:37;;;;;;;4.95;3.15;;;;;;;6.69;55.51;101574.16;5011893;28;20210;-77
2022/04/20 05:03:17;;;;;;;6.15;3.80;;;;;;;6.68;55.82;101569.78;5028374;28;20484;-77
2022/04/20 05:05:45;;;;;;;7.60;4.05;;;;;;;6.70;55.43;101577.66;5012124;28;20473;-77
2022/04/20 05:08:11;;;;;;;7.15;3.83;;;;;;;6.71;54.99;101577.69;5027742;28;20038;-77
2022/04/20 05:10:39;;;;;;;6.65;4.20;;;;;;;6.70;55.76;101575.03;5031356;28;20386;-77
2022/04/20 05:13:07;;;;;;;11.25;4.07;;;;;;;6.70;55.38;101581.22;5004662;28;20040;-77
2022/04/20 05:15:34;;;;;;;6.75;4.25;;;;;;;6.71;55.29;101582.97;5045809;28;20119;-77
2022/04/20 05:18:01;;;;;;;11.95;4.25;;;;;;;6.72;55.67;101584.72;5029898;28;20528;-77
2022/04/20 05:20:27;;;;;;;6.05;3.95;;;;;;;6.76;55.95;101585.63;5011690;28;20029;-77
2022/04/20 05:22:54;;;;;;;7.03;4.10;;;;;;;6.78;55.61;101587.38;5027978;28;20014;-77
2022/04/20 05:25:23;;;;;;;6.75;3.80;;;;;;;6.83;55.88;101592.69;5012050;28;20037;-77
2022/04/20 05:27:49;;;;;;;9.70;4.28;;;;;;;6.87;55.51;101586.53;5026685;28;20425;-77
2022/04/20 05:30:21;;;;;;;7.60;4.25;;;;;;;6.89;55.58;101585.69;5041144;28;20518;-77
2022/04/20 05:32:47;;;;;;;7.90;3.88;;;;;;;6.95;55.13;101590.13;5048608;28;20041;-77
2022/04/20 05:35:22;;;;;;;4.88;3.70;;;;;;;7.01;55.08;101594.53;5028523;28;20692;-77
2022/04/20 05:43:29;;;;;;;8.40;4.00;;;;;;;7.19;55.03;101591.09;5031028;28;20080;-77
2022/04/20 05:45:54;;;;;;;5.78;3.95;;;;;;;7.25;54.71;101586.72;5018965;28;20044;-77
2022/04/20 05:48:46;;;;;;;8.90;4.10;;;;;;;7.32;54.38;101587.66;5035008;28;20137;-77
2022/04/20 05:51:14;;;;;;;7.38;3.97;;;;;;;7.37;54.07;101593.81;5031301;28;20037;-77
2022/04/20 05:53:39;;;;;;;9.18;4.28;;;;;;;7.45;54.31;101591.19;5015124;28;20112;-77
2022/04/20 05:56:06;;;;;;;10.27;3.78;;;;;;;7.51;53.79;101592.06;5015418;28;20041;-77
2022/04/20 05:58:34;;;;;;;6.93;3.90;;;;;;;7.58;53.76;101592.97;5031582;28;20040;-77
2022/04/20 06:00:59;;;;;;;8.32;4.20;;;;;;;7.63;54.29;101585.09;5031887;28;20434;-77
2022/04/20 06:03:57;;;;;;;9.18;4.47;;;;;;;7.72;53.78;101585.97;5019226;28;20393;-77
2022/04/20 06:06:48;;;;;;;;;;;;;;;7.82;52.28;101593.91;5039687;28;20033;-77
2022/04/20 06:09:19;;;;;;;5.95;3.85;;;;;;;7.89;53.75;101593.06;5031295;28;19921;-77
2022/04/20 06:12:07;;;;;;;6.13;4.07;;;;;;;7.96;53.79;101586.88;5021544;28;20052;-77
2022/04/20 06:14:52;;;;;;;8.73;3.83;;;;;;;8.06;53.58;101586.03;5017598;28;20034;-77
2022/04/20 06:17:36;;;;;;;7.25;3.97;;;;;;;8.15;53.58;101586.00;5031810;28;20048;-77
2022/04/20 06:20:02;;;;;;;9.60;3.95;;;;;;;8.26;53.18;101593.03;5040443;28;20034;-77
2022/04/20 06:22:57;;;;;;;8.02;3.92;;;;;;;8.36;53.21;101589.53;5048288;28;20680;-77
2022/04/20 06:25:55;;;;;;;6.60;4.25;;;;;;;8.46;52.58;101588.69;5047448;28;20485;-76
2022/04/20 06:28:44;;;;;;;9.60;4.75;;;;;;;8.55;52.57;101593.94;5041557;28;20041;-77
2022/04/20 06:31:36;;;;;;;10.30;4.05;;;;;;;8.66;52.82;101596.56;5044067;28;20045;-77
2022/04/20 06:34:20;;;;;;;6.93;3.95;;;;;;;8.77;52.05;101596.53;5043175;28;20051;-77
2022/04/20 06:36:58;;;;;;;8.45;3.65;;;;;;;8.85;52.32;101592.09;5036137;28;20208;-77
2022/04/20 06:39:41;;;;;;;6.53;3.70;;;;;;;8.95;51.61;101590.31;5050883;28;20036;-77
2022/04/20 06:42:18;;;;;;;8.15;4.07;;;;;;;9.04;50.70;101598.22;5005077;28;20040;-77
2022/04/20 06:45:09;;;;;;;6.95;4.53;;;;;;;9.15;51.17;101595.53;5049845;28;20068;-77
2022/04/20 06:47:41;;;;;;;7.65;3.88;;;;;;;9.27;51.37;101595.47;5015171;28;20350;-77
2022/04/20 06:50:26;;;;;;;9.10;4.25;;;;;;;9.41;51.13;101601.59;5031963;28;20052;-77
2022/04/20 06:58:41;;;;;;;11.90;4.78;;;;;;;9.80;50.17;101602.25;5030350;28;20141;-77
2022/04/20 07:01:33;;;;;;;8.52;4.07;;;;;;;9.92;49.30;101598.66;5022738;28;20442;-77
2022/04/20 07:04:11;;;;;;;11.10;3.78;;;;;;;10.01;48.73;101600.34;5029498;28;20517;-77
2022/04/20 07:06:54;;;;;;;5.45;4.00;;;;;;;10.12;48.43;101593.22;5021983;28;20041;-77
2022/04/20 07:09:26;;;;;;;6.25;4.30;;;;;;;10.22;48.29;101596.66;5030447;28;20327;-77
2022/04/20 07:12:17;;;;;;;5.10;3.80;;;;;;;10.34;48.09;101596.59;5031772;28;20128;-77
2022/04/20 07:14:43;;;;;;;9.05;4.22;;;;;;;10.43;47.79;101588.53;5030605;28;20073;-77
2022/04/20 07:17:09;;;;;;;6.95;3.60;;;;;;;10.52;48.07;101596.41;5013549;28;20570;-77
2022/04/20 07:19:44;;;;;;;9.02;4.28;;;;;;;10.62;47.41;101585.75;5030314;28;20232;-78
2022/04/20 07:22:51;;;;;;;9.43;3.60;;;;;;;10.73;47.03;101591.78;5016868;28;20397;-77
2022/04/20 07:25:29;;;;;;;10.82;3.83;;;;;;;10.87;46.66;101600.47;5029901;28;20084;-77
2022/04/20 07:28:34;;;;;;;6.95;3.55;;;;;;;11.01;46.46;101591.50;5032320;28;20148;-77
2022/04/20 07:31:24;;;;;;;5.82;3.38;;;;;;;11.14;46.00;101598.41;5030197;28;20048;-77
2022/04/20 07:34:08;;;;;;;8.27;3.90;;;;;;;11.28;46.39;101600.91;5041657;28;20117;-77
2022/04/20 07:36:50;;;;;;;6.63;3.30;;;;;;;11.45;46.00;101600.66;5051543;28;20033;-77
2022/04/20 07:39:27;;;;;;;9.93;3.50;;;;;;;11.63;46.02;101603.06;5049508;28;20468;-77
2022/04/20 07:42:11;;;;;;;6.45;3.45;;;;;;;11.72;44.74;101591.44;5050981;28;20052;-77
2022/04/20 07:44:37;;;;;;;7.80;3.72;;;;;;;11.82;44.61;101607.22;5033450;28;20049;-77
2022/04/20 07:47:31;;;;;;;8.73;3.40;;;;;;;11.94;43.84;101602.66;5030297;28;20124;-77
2022/04/20 07:50:23;;;;;;;5.82;3.38;;;;;;;12.02;43.60;101609.59;5029881;28;20090;-77
2022/04/20 07:52:59;;;;;;;5.50;3.08;;;;;;;12.13;43.84;101608.56;5002098;28;20045;-78
2022/04/20 07:55:46;;;;;;;4.22;3.05;;;;;;;12.20;42.88;101608.44;5030775;28;20516;-78
2022/04/20 07:58:44;;;;;;;13.90;3.50;;;;;;;12.32;43.48;101610.00;5029447;28;20461;-77
2022/04/20 08:01:30;;;;;;;5.53;3.30;;;;;;;12.52;43.42;101611.44;5015878;28;20048;-78
2022/04/20 08:03:58;;;;;;;7.47;3.53;;;;;;;12.62;42.85;101613.91;5030270;28;20049;-77
2022/04/20 08:06:47;;;;;;;4.95;3.30;;;;;;;12.77;42.98;101602.13;5030365;28;20128;-78
2022/04/20 08:09:12;;;;;;;7.80;3.60;;;;;;;12.86;41.50;101609.94;5012804;28;20187;-78
2022/04/20 08:11:38;;;;;;;5.38;3.30;;;;;;;12.97;41.61;101611.50;5029476;28;20094;-78
2022/04/20 08:14:09;;;;;;;5.25;3.40;;;;;;;13.08;41.70;101610.38;5012833;28;20409;-78
2022/04/20 08:16:43;;;;;;;10.70;3.47;;;;;;;13.20;41.35;101613.69;5013535;28;20089;-78
2022/04/20 08:19:27;;;;;;;7.25;4.07;;;;;;;13.25;40.97;101617.13;5030781;28;20481;-78
2022/04/20 08:22:06;;;;;;;4.30;3.20;;;;;;;13.31;40.51;101604.63;5029443;28;20037;-78
2022/04/20 08:24:32;;;;;;;6.93;3.35;;;;;;;13.41;40.28;101613.28;5030301;28;20108;-78
2022/04/20 08:26:58;;;;;;;7.28;3.65;;;;;;;13.55;40.42;101608.53;5011660;28;20039;-78
2022/04/20 08:29:23;;;;;;;10.85;3.95;;;;;;;13.68;40.19;101608.28;5038936;28;20045;-78
2022/04/20 08:31:48;;;;;;;12.70;3.72;;;;;;;13.80;38.65;101615.06;5050196;28;20420;-78
2022/04/20 08:34:14;;;;;;;8.70;4.00;;;;;;;13.91;40.21;101613.06;5019484;28;20037;-78
2022/04/20 08:36:39;;;;;;;8.25;3.72;;;;;;;14.03;39.05;101609.25;5012467;28;20029;-78
2022/04/20 08:39:05;;;;;;;7.88;3.70;;;;;;;14.14;38.47;101609.84;5028727;28;20076;-78
2022/04/20 08:41:31;;;;;;;7.70;3.50;;;;;;;14.25;38.42;101614.91;5030451;28;20326;-78
2022/04/20 08:43:57;;;;;;;4.75;3.25;;;;;;;14.34;37.27;101607.56;5030419;28;20033;-79
2022/04/20 08:46:24;;;;;;;7.05;3.50;;;;;;;14.48;37.62;101609.88;5041962;28;20363;-78
2022/04/20 08:48:50;;;;;;;6.20;3.30;;;;;;;14.60;37.40;101614.03;5048825;28;20041;-78
2022/04/20 08:51:18;;;;;;;15.90;3.72;;;;;;;14.69;36.17;101608.47;5032586;28;20041;-78
2022/04/20 08:53:44;;;;;;;11.27;4.03;;;;;;;14.75;36.37;101602.97;5049997;28;20053;-78
2022/04/20 08:58:55;;;;;;;9.98;3.88;;;;;;;15.01;35.34;101607.59;5049333;28;20133;-78
2022/04/20 09:01:21;;;;;;;9.43;3.88;;;;;;;15.13;34.89;101605.47;5049311;28;20366;-79
2022/04/20 09:03:47;;;;;;;9.57;3.90;;;;;;;15.28;35.36;101607.69;5048995;28;20142;-79
2022/04/20 09:06:16;;;;;;;10.63;4.00;;;;;;;15.31;35.06;101602.28;5026113;28;20048;-78
2022/04/20 09:08:44;;;;;;;6.75;3.72;;;;;;;15.35;35.79;101597.72;5028732;28;20034;-78
2022/04/20 09:11:10;;;;;;;10.07;3.50;;;;;;;15.41;35.10;101593.09;5030518;28;20120;-79
2022/04/20 09:13:41;;;;;;;6.78;3.58;;;;;;;15.44;35.34;101593.00;5029129;28;20025;-79
2022/04/20 09:16:11;;;;;;;6.50;3.47;;;;;;;15.49;35.39;101587.53;5032779;28;20069;-79
2022/04/20 09:18:38;;;;;;;9.00;3.58;;;;;;;15.60;35.31;101593.41;5032739;28;20042;-79
2022/04/20 09:21:08;;;;;;;6.20;3.40;;;;;;;15.72;35.40;101592.19;5032979;28;20036;-79
2022/04/20 09:23:34;;;;;;;6.17;3.67;;;;;;;15.87;34.61;101599.72;5033969;28;20045;-79
2022/04/20 09:26:08;;;;;;;10.40;3.97;;;;;;;16.01;34.97;101588.56;5032804;28;20037;-79
2022/04/20 09:28:36;;;;;;;8.35;3.45;;;;;;;16.09;33.44;101591.00;5035373;28;20042;-79
2022/04/20 09:31:02;;;;;;;5.80;3.63;;;;;;;16.18;33.63;101584.50;5051401;28;20124;-79
2022/04/20 09:33:41;;;;;;;6.55;3.92;;;;;;;16.31;34.68;101583.13;5046419;28;20033;-79
2022/04/20 09:36:07;;;;;;;6.72;3.47;;;;;;;16.49;33.75;101586.97;5033625;28;20109;-79
2022/04/20 09:38:35;;;;;;;4.85;3.35;;;;;;;16.54;32.85;101593.03;5033507;28;20127;-79
2022/04/20 09:41:09;;;;;;;6.38;3.70;;;;;;;16.60;32.67;101582.13;5032216;28;20065;-79
2022/04/20 09:43:34;;;;;;;11.55;3.50;;;;;;;16.66;32.00;101575.69;5015855;28;20504;-79
2022/04/20 09:48:50;;;;;;;5.53;3.58;;;;;;;16.72;32.46;101576.34;5040646;28;20074;-79
2022/04/20 09:49:07;;;;;;;5.30;3.10;;;;;;;16.82;32.05;101576.06;5051606;28;20128;-79
2022/04/20 09:51:40;;;;;;;12.63;3.30;;;;;;;16.93;31.76;101577.41;5053290;28;20056;-79
2022/04/20 09:54:28;;;;;;;6.65;2.80;;;;;;;17.07;32.21;101576.03;5052746;28;20061;-79
2022/04/20 09:57:13;;;;;;;11.02;3.60;;;;;;;17.12;32.01;101563.34;5036768;28;20029;-79
2022/04/20 09:59:58;;;;;;;5.95;2.88;;;;;;;17.17;31.96;101574.75;5015520;28;20092;-79
2022/04/20 10:02:25;;;;;;;12.77;3.42;;;;;;;17.19;31.63;101559.53;5032926;28;20034;-79
2022/04/20 10:04:51;;;;;;;9.52;3.30;;;;;;;17.31;31.64;101568.84;5031841;28;20070;-79
2022/04/20 10:07:17;;;;;;;6.88;3.03;;;;;;;17.52;31.38;101562.69;5033186;28;20043;-79
2022/04/20 10:09:43;;;;;;;4.97;3.10;;;;;;;17.70;30.97;101558.38;5031859;28;20396;-79
2022/04/20 10:12:11;;;;;;;7.70;2.92;;;;;;;17.79;31.35;101546.44;5032848;28;20666;-79
2022/04/20 10:17:26;;;;;;;5.40;2.75;;;;;;;17.97;30.56;101545.72;5031307;28;20068;-79
2022/04/20 10:19:57;;;;;;;4.85;2.38;;;;;;;18.05;29.51;101545.38;5031482;28;20061;-79
2022/04/20 10:22:25;;;;;;;5.97;2.83;;;;;;;18.01;29.63;101549.16;5014971;28;20041;-79
2022/04/20 10:24:55;;;;;;;4.72;2.42;;;;;;;17.98;30.27;101544.78;5032776;28;20117;-79
2022/04/20 10:27:28;;;;;;;8.98;2.72;;;;;;;18.05;30.36;101529.31;5030941;28;20091;-79
2022/04/20 10:30:07;;;;;;;4.30;2.55;;;;;;;18.07;29.91;101531.94;5040872;28;20119;-79
2022/04/20 10:32:52;;;;;;;4.72;2.70;;;;;;;18.11;30.56;101537.09;5052373;28;20194;-79
2022/04/20 10:35:22;;;;;;;8.52;3.20;;;;;;;18.24;29.70;101527.59;5031524;28;20101;-80
2022/04/20 10:38:08;;;;;;;5.05;2.70;;;;;;;18.53;30.77;101522.78;5015312;28;20525;-79
2022/04/20 10:40:59;;;;;;;6.50;2.50;;;;;;;18.80;30.58;101528.75;5031761;28;20083;-80
2022/04/20 10:43:27;;;;;;;9.57;3.38;;;;;;;18.69;29.57;101529.22;5041664;28;20095;-80
2022/04/20 10:46:17;;;;;;;5.35;2.88;;;;;;;18.83;30.26;101527.75;5032957;28;20383;-79
2022/04/20 10:48:51;;;;;;;6.20;2.60;;;;;;;19.02;29.10;101527.78;5034370;28;20047;-80
2022/04/20 10:51:25;;;;;;;5.22;2.70;;;;;;;19.10;29.91;101529.16;5043327;28;20041;-81
2022/04/20 10:53:52;;;;;;;5.53;2.90;;;;;;;19.28;29.33;101521.16;5035960;28;20073;-79
2022/04/20 10:56:21;;;;;;;4.72;2.67;;;;;;;19.31;28.46;101521.00;5032803;28;20103;-82
2022/04/20 10:59:07;;;;;;;9.25;2.95;;;;;;;19.56;29.68;101512.66;5021185;28;20125;-79
2022/04/20 11:01:58;;;;;;;4.15;2.50;;;;;;;19.76;29.64;101509.03;5040939;28;20109;-79
2022/04/20 11:04:34;;;;;;;8.23;2.90;;;;;;;19.87;29.05;101508.50;5042825;28;20119;-81
2022/04/20 11:06:59;;;;;;;7.30;3.00;;;;;;;19.78;28.34;101509.81;5031340;28;20094;-78
2022/04/20 11:09:46;;;;;;;5.38;2.90;;;;;;;19.77;28.54;101508.94;5037324;28;20123;-81
2022/04/20 11:21:04;;;;;;;5.05;3.00;;;;;;;20.04;28.71;101499.56;5050179;28;20065;-81
2022/04/20 11:23:48;;;;;;;8.95;3.10;;;;;;;20.15;28.88;101487.34;5030373;28;20442;-80
2022/04/20 11:26:19;;;;;;;4.60;2.70;;;;;;;20.29;28.27;101488.41;5017283;28;20098;-81
2022/04/20 11:28:46;;;;;;;10.80;3.25;;;;;;;20.28;27.72;101481.31;5043991;28;20112;-82
2022/04/20 11:31:12;;;;;;;6.18;3.05;;;;;;;20.45;27.92;101481.28;5039189;28;20032;-81
2022/04/20 11:33:38;;;;;;;8.52;3.30;;;;;;;20.66;27.93;101487.38;5042259;28;20021;-80
2022/04/20 11:36:05;;;;;;;6.35;3.20;;;;;;;20.82;27.56;101480.22;5031077;28;20029;-80
2022/04/20 11:38:44;;;;;;;6.53;3.03;;;;;;;21.01;28.70;101468.41;5032675;28;20033;-79
2022/04/20 11:41:15;;;;;;;9.23;3.00;;;;;;;21.09;27.24;101470.66;5030966;28;20033;-78
2022/04/20 11:43:41;;;;;;;6.05;3.13;;;;;;;21.08;27.39;101466.25;5035852;28;20362;-78
2022/04/20 11:46:11;;;;;;;7.38;2.80;;;;;;;21.08;27.84;101469.81;5007605;28;20393;-77
2022/04/20 11:48:38;;;;;;;5.28;2.80;;;;;;;21.21;27.80;101461.91;5030018;28;20029;-78
2022/04/20 11:51:08;;;;;;;6.95;2.92;;;;;;;21.44;28.08;101463.34;5048816;28;20037;-78
2022/04/20 11:53:40;;;;;;;5.50;3.03;;;;;;;21.73;26.92;101468.84;5046620;28;20491;-77
2022/04/20 11:56:17;;;;;;;7.93;2.90;;;;;;;21.90;26.44;101457.94;5022988;28;20037;-78
2022/04/20 11:58:53;;;;;;;9.30;3.00;;;;;;;21.95;26.20;101460.34;5045005;28;20040;-78
2022/04/20 12:01:22;;;;;;;10.05;3.28;;;;;;;21.89;26.70;101451.66;5036101;28;20080;-78
2022/04/20 12:03:50;;;;;;;6.55;2.90;;;;;;;21.98;26.58;101452.94;5044039;28;20042;-78
2022/04/20 12:06:15;;;;;;;9.73;2.88;;;;;;;22.09;26.63;101449.59;5022239;28;20132;-79
2022/04/20 12:08:41;;;;;;;6.13;2.50;;;;;;;22.12;25.61;101446.72;5037231;28;20120;-80
2022/04/20 12:11:11;;;;;;;4.97;2.83;;;;;;;22.26;25.29;101441.38;5046941;28;20118;-79
2022/04/20 12:13:39;;;;;;;7.28;2.60;;;;;;;22.32;24.69;101442.81;5031906;28;20112;-79
2022/04/20 12:16:12;;;;;;;7.70;3.33;;;;;;;22.41;25.57;101436.00;5031188;28;20461;-78
2022/04/20 12:18:45;;;;;;;5.40;2.38;;;;;;;22.46;25.32;101423.97;5030589;28;20246;-80
2022/04/20 12:21:37;;;;;;;5.05;2.40;;;;;;;22.73;26.13;101426.75;5030480;28;20057;-80
2022/04/20 12:24:03;;;;;;;8.52;2.55;;;;;;;22.84;25.11;101427.88;5036224;28;20033;-78
2022/04/20 12:26:30;;;;;;;5.93;2.92;;;;;;;22.43;24.56;101417.91;5050443;28;20033;-79